sensor_id;sensor_type;location;lat;lon;timestamp;pressure;altitude;pressure_sealevel;temperature;humidity
61674;BME280;47573;43.832;5.974;2023-08-06T00:05:23;94734.59;;;30.96;37.37
61674;BME280;47573;43.832;5.974;2023-08-06T00:12:06;94736.34;;;30.92;37.56
61674;BME280;47573;43.832;5.974;2023-08-06T00:18:47;94749.72;;;31.12;37.22
61674;BME280;47573;43.832;5.974;2023-08-06T00:25:27;94751.97;;;31.10;37.13
61674;BME280;47573;43.832;5.974;2023-08-06T00:32:09;94746.34;;;31.15;37.55
61674;BME280;47573;43.832;5.974;2023-08-06T00:38:50;94749.91;;;31.16;37.49
61674;BME280;47573;43.832;5.974;2023-08-06T00:45:34;94744.41;;;31.16;37.49
61674;BME280;47573;43.832;5.974;2023-08-06T00:52:16;94739.72;;;31.16;37.44
61674;BME280;47573;43.832;5.974;2023-08-06T00:58:57;94745.22;;;31.16;37.37
61674;BME280;47573;43.832;5.974;2023-08-06T01:05:38;94734.19;;;31.16;37.34
61674;BME280;47573;43.832;5.974;2023-08-06T01:12:25;94739.72;;;31.16;37.08
61674;BME280;47573;43.832;5.974;2023-08-06T01:19:16;94733.88;;;31.18;37.42
61674;BME280;47573;43.832;5.974;2023-08-06T01:26:05;94731.44;;;31.16;37.33
61674;BME280;47573;43.832;5.974;2023-08-06T01:32:49;94734.19;;;31.16;37.37
61674;BME280;47573;43.832;5.974;2023-08-06T01:39:33;94730.94;;;31.14;37.49
61674;BME280;47573;43.832;5.974;2023-08-06T01:46:15;94732.34;;;31.12;37.64
61674;BME280;47573;43.832;5.974;2023-08-06T01:52:55;94731.72;;;31.15;37.35
61674;BME280;47573;43.832;5.974;2023-08-06T01:59:36;94724.91;;;31.12;37.69
61674;BME280;47573;43.832;5.974;2023-08-06T02:06:17;94711.13;;;31.12;37.69
61674;BME280;47573;43.832;5.974;2023-08-06T02:12:58;94707.53;;;31.12;37.63
61674;BME280;47573;43.832;5.974;2023-08-06T02:19:39;94706.22;;;31.09;38.03
61674;BME280;47573;43.832;5.974;2023-08-06T02:26:20;94706.22;;;31.09;37.58
61674;BME280;47573;43.832;5.974;2023-08-06T02:33:01;94696.59;;;31.07;38.08
61674;BME280;47573;43.832;5.974;2023-08-06T02:39:42;94690.25;;;31.06;37.78
61674;BME280;47573;43.832;5.974;2023-08-06T02:46:23;94703.53;;;31.04;37.78
61674;BME280;47573;43.832;5.974;2023-08-06T02:53:04;94703.53;;;31.04;38.07
61674;BME280;47573;43.832;5.974;2023-08-06T02:59:44;94711.31;;;31.02;38.17
61674;BME280;47573;43.832;5.974;2023-08-06T03:06:26;94711.31;;;31.02;38.07
61674;BME280;47573;43.832;5.974;2023-08-06T03:13:07;94699.59;;;30.97;37.80
61674;BME280;47573;43.832;5.974;2023-08-06T03:19:47;94701.94;;;31.03;38.06
61674;BME280;47573;43.832;5.974;2023-08-06T03:26:29;94698.66;;;31.01;38.04
61674;BME280;47573;43.832;5.974;2023-08-06T03:33:09;94702.53;;;31.00;38.23
61674;BME280;47573;43.832;5.974;2023-08-06T03:39:50;94704.00;;;30.98;38.32
61674;BME280;47573;43.832;5.974;2023-08-06T03:46:32;94708.19;;;30.95;38.34
61674;BME280;47573;43.832;5.974;2023-08-06T03:53:12;94702.66;;;30.95;38.48
61674;BME280;47573;43.832;5.974;2023-08-06T03:59:53;94709.28;;;30.94;38.73
61674;BME280;47573;43.832;5.974;2023-08-06T04:06:35;94715.13;;;30.92;38.85
61674;BME280;47573;43.832;5.974;2023-08-06T04:13:15;94728.06;;;30.92;38.43
61674;BME280;47573;43.832;5.974;2023-08-06T04:19:56;94725.63;;;30.90;38.79
61674;BME280;47573;43.832;5.974;2023-08-06T04:26:38;94719.94;;;30.87;38.99
61674;BME280;47573;43.832;5.974;2023-08-06T04:33:18;94712.78;;;30.86;38.96
61674;BME280;47573;43.832;5.974;2023-08-06T04:39:59;94724.63;;;30.86;39.04
61674;BME280;47573;43.832;5.974;2023-08-06T04:46:40;94716.66;;;30.85;38.74
61674;BME280;47573;43.832;5.974;2023-08-06T04:53:21;94722.75;;;30.82;38.98
61674;BME280;47573;43.832;5.974;2023-08-06T05:00:02;94710.31;;;30.11;35.42
61674;BME280;47573;43.832;5.974;2023-08-06T05:06:44;94716.63;;;29.61;34.91
61674;BME280;47573;43.832;5.974;2023-08-06T05:13:24;94718.66;;;29.37;35.41
61674;BME280;47573;43.832;5.974;2023-08-06T05:20:06;94735.78;;;29.10;35.50
61674;BME280;47573;43.832;5.974;2023-08-06T05:26:47;94722.13;;;28.82;35.90
61674;BME280;47573;43.832;5.974;2023-08-06T05:33:28;94720.50;;;28.81;36.02
61674;BME280;47573;43.832;5.974;2023-08-06T05:40:09;94731.25;;;28.53;36.35
61674;BME280;47573;43.832;5.974;2023-08-06T05:46:51;94733.09;;;28.34;36.68
61674;BME280;47573;43.832;5.974;2023-08-06T05:53:31;94726.34;;;28.27;36.81
61674;BME280;47573;43.832;5.974;2023-08-06T06:00:12;94741.16;;;28.26;37.05
61674;BME280;47573;43.832;5.974;2023-08-06T06:06:53;94748.13;;;28.13;37.19
61674;BME280;47573;43.832;5.974;2023-08-06T06:13:34;94741.53;;;28.19;37.16
61674;BME280;47573;43.832;5.974;2023-08-06T06:20:14;94746.41;;;28.22;37.42
61674;BME280;47573;43.832;5.974;2023-08-06T06:26:56;94735.44;;;28.22;37.92
61674;BME280;47573;43.832;5.974;2023-08-06T06:33:37;94748.53;;;28.30;37.72
61674;BME280;47573;43.832;5.974;2023-08-06T06:40:17;94737.50;;;28.35;37.60
61674;BME280;47573;43.832;5.974;2023-08-06T06:46:59;94739.66;;;28.38;37.29
61674;BME280;47573;43.832;5.974;2023-08-06T06:53:39;94749.94;;;28.51;37.49
61674;BME280;47573;43.832;5.974;2023-08-06T07:00:20;94731.84;;;28.50;37.45
61674;BME280;47573;43.832;5.974;2023-08-06T07:07:02;94722.41;;;28.61;37.77
61674;BME280;47573;43.832;5.974;2023-08-06T07:13:43;94734.78;;;28.83;38.00
61674;BME280;47573;43.832;5.974;2023-08-06T07:20:23;94719.81;;;28.94;38.24
61674;BME280;47573;43.832;5.974;2023-08-06T07:27:06;94718.00;;;29.03;37.83
61674;BME280;47573;43.832;5.974;2023-08-06T07:33:46;94716.50;;;29.15;38.02
61674;BME280;47573;43.832;5.974;2023-08-06T07:40:27;94712.72;;;29.30;37.75
61674;BME280;47573;43.832;5.974;2023-08-06T07:47:09;94716.06;;;29.46;37.70
61674;BME280;47573;43.832;5.974;2023-08-06T07:53:50;94704.16;;;29.50;37.68
61674;BME280;47573;43.832;5.974;2023-08-06T08:00:30;94710.59;;;29.59;37.57
61674;BME280;47573;43.832;5.974;2023-08-06T08:07:12;94713.88;;;29.61;37.51
61674;BME280;47573;43.832;5.974;2023-08-06T08:13:53;94716.56;;;29.66;37.67
61674;BME280;47573;43.832;5.974;2023-08-06T08:20:33;94727.44;;;29.76;37.27
61674;BME280;47573;43.832;5.974;2023-08-06T08:27:15;94732.47;;;29.69;37.68
61674;BME280;47573;43.832;5.974;2023-08-06T08:33:56;94720.88;;;29.72;37.95
61674;BME280;47573;43.832;5.974;2023-08-06T08:40:41;94718.13;;;29.72;37.93
61674;BME280;47573;43.832;5.974;2023-08-06T08:47:26;94724.72;;;29.71;37.81
61674;BME280;47573;43.832;5.974;2023-08-06T08:54:07;94718.03;;;29.77;37.74
61674;BME280;47573;43.832;5.974;2023-08-06T09:00:49;94714.63;;;29.85;37.66
61674;BME280;47573;43.832;5.974;2023-08-06T09:07:35;94707.47;;;29.84;37.36
61674;BME280;47573;43.832;5.974;2023-08-06T09:14:19;94709.34;;;29.89;37.39
61674;BME280;47573;43.832;5.974;2023-08-06T09:20:59;94714.00;;;29.88;37.67
61674;BME280;47573;43.832;5.974;2023-08-06T09:27:46;94703.81;;;29.89;37.33
61674;BME280;47573;43.832;5.974;2023-08-06T09:34:28;94706.78;;;29.92;37.41
61674;BME280;47573;43.832;5.974;2023-08-06T09:41:08;94707.31;;;29.94;37.23
61674;BME280;47573;43.832;5.974;2023-08-06T09:47:50;94706.91;;;30.01;37.06
61674;BME280;47573;43.832;5.974;2023-08-06T09:54:37;94705.28;;;30.00;37.10
61674;BME280;47573;43.832;5.974;2023-08-06T10:01:18;94712.63;;;30.04;37.16
61674;BME280;47573;43.832;5.974;2023-08-06T10:08:01;94712.63;;;30.04;37.17
61674;BME280;47573;43.832;5.974;2023-08-06T10:14:42;94720.59;;;30.06;36.79
61674;BME280;47573;43.832;5.974;2023-08-06T10:21:23;94731.31;;;30.07;36.92
61674;BME280;47573;43.832;5.974;2023-08-06T10:28:09;94724.06;;;30.11;36.85
61674;BME280;47573;43.832;5.974;2023-08-06T10:34:59;94721.00;;;30.13;36.80
61674;BME280;47573;43.832;5.974;2023-08-06T10:41:42;94719.09;;;30.13;36.89
61674;BME280;47573;43.832;5.974;2023-08-06T10:48:34;94702.25;;;30.15;37.26
61674;BME280;47573;43.832;5.974;2023-08-06T10:55:22;94705.50;;;30.17;37.18
61674;BME280;47573;43.832;5.974;2023-08-06T11:02:03;94703.28;;;30.19;36.87
61674;BME280;47573;43.832;5.974;2023-08-06T11:08:49;94698.91;;;30.18;37.20
61674;BME280;47573;43.832;5.974;2023-08-06T11:15:30;94684.50;;;30.21;36.86
61674;BME280;47573;43.832;5.974;2023-08-06T11:22:11;94679.75;;;30.27;37.27
61674;BME280;47573;43.832;5.974;2023-08-06T11:28:53;94669.25;;;30.29;36.94
61674;BME280;47573;43.832;5.974;2023-08-06T11:35:34;94665.38;;;30.30;36.90
61674;BME280;47573;43.832;5.974;2023-08-06T11:42:14;94667.03;;;30.31;36.92
61674;BME280;47573;43.832;5.974;2023-08-06T11:48:59;94660.09;;;30.33;36.81
61674;BME280;47573;43.832;5.974;2023-08-06T11:55:39;94656.72;;;30.36;37.01
61674;BME280;47573;43.832;5.974;2023-08-06T12:02:21;94650.28;;;30.41;36.54
61674;BME280;47573;43.832;5.974;2023-08-06T12:09:03;94655.81;;;30.41;36.62
61674;BME280;47573;43.832;5.974;2023-08-06T12:15:44;94638.69;;;30.44;36.88
61674;BME280;47573;43.832;5.974;2023-08-06T12:22:25;94635.38;;;30.42;36.67
61674;BME280;47573;43.832;5.974;2023-08-06T12:29:07;94645.22;;;30.48;36.99
61674;BME280;47573;43.832;5.974;2023-08-06T12:35:47;94651.50;;;30.48;36.68
61674;BME280;47573;43.832;5.974;2023-08-06T12:42:28;94646.00;;;30.48;37.04
61674;BME280;47573;43.832;5.974;2023-08-06T12:49:09;94639.06;;;30.51;36.47
61674;BME280;47573;43.832;5.974;2023-08-06T12:55:50;94645.59;;;30.55;36.80
61674;BME280;47573;43.832;5.974;2023-08-06T13:02:30;94651.09;;;30.55;36.86
61674;BME280;47573;43.832;5.974;2023-08-06T13:09:13;94643.34;;;30.57;36.97
61674;BME280;47573;43.832;5.974;2023-08-06T13:15:53;94641.09;;;30.59;36.68
61674;BME280;47573;43.832;5.974;2023-08-06T13:22:33;94634.97;;;30.62;36.99
61674;BME280;47573;43.832;5.974;2023-08-06T13:29:15;94644.34;;;30.61;36.94
61674;BME280;47573;43.832;5.974;2023-08-06T13:35:56;94638.75;;;30.66;37.06
61674;BME280;47573;43.832;5.974;2023-08-06T13:42:36;94636.00;;;30.66;37.00
61674;BME280;47573;43.832;5.974;2023-08-06T13:49:18;94642.53;;;30.70;37.16
61674;BME280;47573;43.832;5.974;2023-08-06T13:55:59;94641.38;;;30.71;37.08
61674;BME280;47573;43.832;5.974;2023-08-06T14:02:39;94639.63;;;30.75;36.86
61674;BME280;47573;43.832;5.974;2023-08-06T14:09:21;94653.13;;;30.76;37.25
61674;BME280;47573;43.832;5.974;2023-08-06T14:16:01;94632.69;;;30.77;36.71
61674;BME280;47573;43.832;5.974;2023-08-06T14:22:42;94639.03;;;30.78;36.95
61674;BME280;47573;43.832;5.974;2023-08-06T14:29:24;94633.53;;;30.78;37.02
61674;BME280;47573;43.832;5.974;2023-08-06T14:36:04;94640.69;;;30.79;37.23
61674;BME280;47573;43.832;5.974;2023-08-06T14:42:45;94654.56;;;30.87;37.20
61674;BME280;47573;43.832;5.974;2023-08-06T14:49:27;94650.88;;;30.92;36.82
61674;BME280;47573;43.832;5.974;2023-08-06T14:56:07;94648.53;;;30.99;37.59
61674;BME280;47573;43.832;5.974;2023-08-06T15:02:48;94646.88;;;30.98;37.57
61674;BME280;47573;43.832;5.974;2023-08-06T15:09:29;94660.66;;;30.98;38.54
61674;BME280;47573;43.832;5.974;2023-08-06T15:16:10;94665.06;;;30.99;39.06
61674;BME280;47573;43.832;5.974;2023-08-06T15:22:50;94662.91;;;30.96;39.23
61674;BME280;47573;43.832;5.974;2023-08-06T15:29:32;94680.47;;;31.00;39.38
61674;BME280;47573;43.832;5.974;2023-08-06T15:36:13;94696.41;;;31.03;39.77
61674;BME280;47573;43.832;5.974;2023-08-06T15:42:53;94691.09;;;31.07;38.13
61674;BME280;47573;43.832;5.974;2023-08-06T15:49:35;94698.63;;;31.28;35.46
61674;BME280;47573;43.832;5.974;2023-08-06T15:56:16;94697.78;;;31.28;33.30
61674;BME280;47573;43.832;5.974;2023-08-06T16:02:56;94703.50;;;31.31;32.59
61674;BME280;47573;43.832;5.974;2023-08-06T16:09:38;94696.97;;;31.27;31.66
61674;BME280;47573;43.832;5.974;2023-08-06T16:16:19;94711.66;;;31.36;31.37
61674;BME280;47573;43.832;5.974;2023-08-06T16:22:59;94710.25;;;31.25;31.70
61674;BME280;47573;43.832;5.974;2023-08-06T16:29:41;94708.00;;;31.27;30.66
61674;BME280;47573;43.832;5.974;2023-08-06T16:36:22;94726.28;;;31.23;29.24
61674;BME280;47573;43.832;5.974;2023-08-06T16:43:02;94716.63;;;31.12;28.78
61674;BME280;47573;43.832;5.974;2023-08-06T16:49:44;94723.53;;;31.23;28.74
61674;BME280;47573;43.832;5.974;2023-08-06T16:56:25;94720.69;;;31.15;28.93
61674;BME280;47573;43.832;5.974;2023-08-06T17:03:05;94722.34;;;31.02;28.97
61674;BME280;47573;43.832;5.974;2023-08-06T17:09:47;94724.00;;;30.89;28.89
61674;BME280;47573;43.832;5.974;2023-08-06T17:16:28;94728.47;;;30.85;28.53
61674;BME280;47573;43.832;5.974;2023-08-06T17:23:08;94727.94;;;30.83;28.53
61674;BME280;47573;43.832;5.974;2023-08-06T17:29:50;94743.69;;;30.83;28.66
61674;BME280;47573;43.832;5.974;2023-08-06T17:36:30;94760.31;;;30.78;29.19
61674;BME280;47573;43.832;5.974;2023-08-06T17:43:11;94765.22;;;30.81;28.38
61674;BME280;47573;43.832;5.974;2023-08-06T17:49:53;94780.53;;;30.73;28.41
61674;BME280;47573;43.832;5.974;2023-08-06T17:56:34;94788.91;;;30.68;28.53
61674;BME280;47573;43.832;5.974;2023-08-06T18:03:14;94787.66;;;30.61;28.80
61674;BME280;47573;43.832;5.974;2023-08-06T18:09:56;94798.69;;;30.61;29.08
61674;BME280;47573;43.832;5.974;2023-08-06T18:16:36;94809.28;;;30.54;28.85
61674;BME280;47573;43.832;5.974;2023-08-06T18:23:17;94815.19;;;30.47;28.77
61674;BME280;47573;43.832;5.974;2023-08-06T18:29:59;94832.09;;;30.41;28.56
61674;BME280;47573;43.832;5.974;2023-08-06T18:36:39;94836.72;;;30.27;28.47
61674;BME280;47573;43.832;5.974;2023-08-06T18:43:20;94844.22;;;30.21;28.46
61674;BME280;47573;43.832;5.974;2023-08-06T18:50:02;94850.72;;;30.11;28.64
61674;BME280;47573;43.832;5.974;2023-08-06T18:56:43;94867.84;;;30.08;28.68
61674;BME280;47573;43.832;5.974;2023-08-06T19:03:23;94879.63;;;29.95;28.85
61674;BME280;47573;43.832;5.974;2023-08-06T19:10:06;94883.63;;;29.84;29.25
61674;BME280;47573;43.832;5.974;2023-08-06T19:16:47;94892.78;;;29.80;29.00
61674;BME280;47573;43.832;5.974;2023-08-06T19:23:27;94896.41;;;29.75;29.00
61674;BME280;47573;43.832;5.974;2023-08-06T19:30:10;94899.78;;;29.67;28.92
61674;BME280;47573;43.832;5.974;2023-08-06T19:36:51;94896.66;;;29.55;29.56
61674;BME280;47573;43.832;5.974;2023-08-06T19:43:31;94902.94;;;29.37;29.20
61674;BME280;47573;43.832;5.974;2023-08-06T19:50:13;94911.88;;;29.24;29.36
61674;BME280;47573;43.832;5.974;2023-08-06T19:56:54;94924.06;;;29.18;29.49
61674;BME280;47573;43.832;5.974;2023-08-06T20:03:34;94925.19;;;29.12;29.58
61674;BME280;47573;43.832;5.974;2023-08-06T20:10:16;94940.41;;;29.04;29.87
61674;BME280;47573;43.832;5.974;2023-08-06T20:16:57;94940.34;;;29.09;30.35
61674;BME280;47573;43.832;5.974;2023-08-06T20:23:37;94930.81;;;29.02;30.11
61674;BME280;47573;43.832;5.974;2023-08-06T20:30:19;94930.00;;;28.96;30.62
61674;BME280;47573;43.832;5.974;2023-08-06T20:37:00;94934.41;;;28.97;30.37
61674;BME280;47573;43.832;5.974;2023-08-06T20:43:40;94950.69;;;28.94;30.17
61674;BME280;47573;43.832;5.974;2023-08-06T20:50:22;94975.44;;;28.89;30.23
61674;BME280;47573;43.832;5.974;2023-08-06T20:57:03;94974.00;;;28.96;30.34
61674;BME280;47573;43.832;5.974;2023-08-06T21:03:44;94976.81;;;28.91;30.75
61674;BME280;47573;43.832;5.974;2023-08-06T21:10:26;94988.88;;;28.90;30.93
61674;BME280;47573;43.832;5.974;2023-08-06T21:17:07;94983.66;;;28.94;31.26
61674;BME280;47573;43.832;5.974;2023-08-06T21:23:47;94991.84;;;28.99;31.28
61674;BME280;47573;43.832;5.974;2023-08-06T21:30:31;94994.56;;;29.04;31.44
61674;BME280;47573;43.832;5.974;2023-08-06T21:37:11;94995.38;;;29.04;31.40
61674;BME280;47573;43.832;5.974;2023-08-06T21:43:52;94992.34;;;29.06;31.93
61674;BME280;47573;43.832;5.974;2023-08-06T21:50:33;95001.63;;;29.15;33.38
61674;BME280;47573;43.832;5.974;2023-08-06T21:57:14;94993.22;;;29.30;33.56
61674;BME280;47573;43.832;5.974;2023-08-06T22:03:54;94987.03;;;29.43;33.89
61674;BME280;47573;43.832;5.974;2023-08-06T22:10:36;94988.03;;;29.52;33.87
61674;BME280;47573;43.832;5.974;2023-08-06T22:17:17;94981.88;;;29.60;34.42
61674;BME280;47573;43.832;5.974;2023-08-06T22:23:57;94985.41;;;29.66;34.25
61674;BME280;47573;43.832;5.974;2023-08-06T22:30:39;94982.03;;;29.74;34.57
61674;BME280;47573;43.832;5.974;2023-08-06T22:37:19;94980.63;;;29.76;34.64
61674;BME280;47573;43.832;5.974;2023-08-06T22:44:00;94988.22;;;29.84;34.43
61674;BME280;47573;43.832;5.974;2023-08-06T22:50:42;94970.00;;;29.88;34.76
61674;BME280;47573;43.832;5.974;2023-08-06T22:57:22;94979.31;;;29.92;34.97
61674;BME280;47573;43.832;5.974;2023-08-06T23:04:03;94978.72;;;29.95;34.63
61674;BME280;47573;43.832;5.974;2023-08-06T23:10:45;94975.44;;;29.93;34.33
61674;BME280;47573;43.832;5.974;2023-08-06T23:17:25;94964.97;;;29.95;34.39
61674;BME280;47573;43.832;5.974;2023-08-06T23:24:06;94959.97;;;29.97;34.94
61674;BME280;47573;43.832;5.974;2023-08-06T23:30:47;94961.03;;;30.01;35.09
61674;BME280;47573;43.832;5.974;2023-08-06T23:37:28;94956.56;;;30.05;35.07
61674;BME280;47573;43.832;5.974;2023-08-06T23:44:09;94951.06;;;30.05;35.28
61674;BME280;47573;43.832;5.974;2023-08-06T23:50:50;94950.00;;;30.01;34.99
61674;BME280;47573;43.832;5.974;2023-08-06T23:57:31;94955.44;;;30.06;35.22
